sensor_id;sensor_type;location;lat;lon;timestamp;pressure;altitude;pressure_sealevel;temperature;humidity
85400;BME280;75813;48.758;9.290;2024-01-16T19:51:05;96313.00;;;-4.55;71.68
85400;BME280;75813;48.758;9.290;2024-01-16T19:53:31;96312.72;;;-4.54;71.80
85400;BME280;75813;48.758;9.290;2024-01-16T19:55:57;96311.94;;;-4.54;71.52
85400;BME280;75813;48.758;9.290;2024-01-16T19:58:24;96303.00;;;-4.48;71.33
85400;BME280;75813;48.758;9.290;2024-01-16T20:00:50;96298.28;;;-4.56;71.46
85400;BME280;75813;48.758;9.290;2024-01-16T20:03:15;96287.25;;;-4.58;71.95
85400;BME280;75813;48.758;9.290;2024-01-16T20:05:40;96291.47;;;-4.63;72.22
85400;BME280;75813;48.758;9.290;2024-01-16T20:08:09;96290.94;;;-4.70;72.65
85400;BME280;75813;48.758;9.290;2024-01-16T20:10:36;96282.28;;;-4.70;72.47
85400;BME280;75813;48.758;9.290;2024-01-16T20:13:04;96281.50;;;-4.76;73.51
85400;BME280;75813;48.758;9.290;2024-01-16T20:17:24;96279.44;;;-3.94;73.64
85400;BME280;75813;48.758;9.290;2024-01-16T20:19:49;96277.84;;;-4.00;74.70
85400;BME280;75813;48.758;9.290;2024-01-16T20:22:15;96257.91;;;-4.16;75.07
85400;BME280;75813;48.758;9.290;2024-01-16T20:24:40;96276.00;;;-4.25;75.28
85400;BME280;75813;48.758;9.290;2024-01-16T20:28:55;96266.53;;;-6.41;76.24
85400;BME280;75813;48.758;9.290;2024-01-16T20:31:21;96261.03;;;-6.34;76.46
85400;BME280;75813;48.758;9.290;2024-01-16T20:33:46;96260.25;;;-6.40;76.96
85400;BME280;75813;48.758;9.290;2024-01-16T20:36:14;96265.25;;;-6.43;77.14
85400;BME280;75813;48.758;9.290;2024-01-16T20:38:44;96264.47;;;-6.39;76.83
85400;BME280;75813;48.758;9.290;2024-01-16T20:41:10;96258.44;;;-6.39;76.50
85400;BME280;75813;48.758;9.290;2024-01-16T20:43:36;96241.38;;;-6.27;76.55
85400;BME280;75813;48.758;9.290;2024-01-16T20:46:05;96244.78;;;-6.11;75.60
85400;BME280;75813;48.758;9.290;2024-01-16T20:48:31;96239.81;;;-6.23;75.83
85400;BME280;75813;48.758;9.290;2024-01-16T20:50:59;96234.56;;;-6.33;76.53
85400;BME280;75813;48.758;9.290;2024-01-16T20:53:26;96246.63;;;-6.32;76.41
85400;BME280;75813;48.758;9.290;2024-01-16T20:55:55;96242.69;;;-6.29;76.09
85400;BME280;75813;48.758;9.290;2024-01-16T20:58:21;96224.84;;;-6.17;74.94
85400;BME280;75813;48.758;9.290;2024-01-16T21:00:46;96243.22;;;-5.97;74.60
85400;BME280;75813;48.758;9.290;2024-01-16T21:03:13;96240.31;;;-5.95;74.77
85400;BME280;75813;48.758;9.290;2024-01-16T21:05:43;96234.28;;;-5.86;73.90
85400;BME280;75813;48.758;9.290;2024-01-16T21:08:09;96235.31;;;-5.82;73.50
85400;BME280;75813;48.758;9.290;2024-01-16T21:11:57;96227.19;;;-3.95;74.53
85400;BME280;75813;48.758;9.290;2024-01-16T21:15:15;96226.41;;;-3.31;74.40
85400;BME280;75813;48.758;9.290;2024-01-16T21:18:40;96202.53;;;-3.54;74.74
85400;BME280;75813;48.758;9.290;2024-01-16T21:21:10;96212.78;;;-3.48;74.97
85400;BME280;75813;48.758;9.290;2024-01-16T21:23:36;96216.69;;;-3.45;74.88
85400;BME280;75813;48.758;9.290;2024-01-16T21:26:02;96208.81;;;-3.45;75.27
85400;BME280;75813;48.758;9.290;2024-01-16T21:28:28;96210.16;;;-3.48;75.27
85400;BME280;75813;48.758;9.290;2024-01-16T21:30:54;96206.97;;;-3.45;74.95
85400;BME280;75813;48.758;9.290;2024-01-16T21:33:22;96193.09;;;-3.55;75.29
85400;BME280;75813;48.758;9.290;2024-01-16T21:35:49;96197.81;;;-3.47;75.38
85400;BME280;75813;48.758;9.290;2024-01-16T21:38:14;96202.28;;;-3.48;75.05
85400;BME280;75813;48.758;9.290;2024-01-16T21:40:40;96195.97;;;-3.52;75.32
85400;BME280;75813;48.758;9.290;2024-01-16T21:43:05;96184.44;;;-3.56;75.78
85400;BME280;75813;48.758;9.290;2024-01-16T21:45:30;96181.03;;;-3.62;75.92
85400;BME280;75813;48.758;9.290;2024-01-16T21:47:56;96188.91;;;-3.72;76.19
85400;BME280;75813;48.758;9.290;2024-01-16T21:50:21;96182.34;;;-3.84;76.19
85400;BME280;75813;48.758;9.290;2024-01-16T21:52:47;96178.19;;;-3.90;76.64
85400;BME280;75813;48.758;9.290;2024-01-16T21:55:13;96180.50;;;-3.84;76.19
85400;BME280;75813;48.758;9.290;2024-01-16T21:57:38;96178.94;;;-3.80;75.66
85400;BME280;75813;48.758;9.290;2024-01-16T22:00:05;96167.41;;;-3.79;75.92
85400;BME280;75813;48.758;9.290;2024-01-16T22:02:35;96167.41;;;-3.79;76.68
85400;BME280;75813;48.758;9.290;2024-01-16T22:05:01;96167.69;;;-3.85;76.40
85400;BME280;75813;48.758;9.290;2024-01-16T22:07:26;96158.50;;;-3.88;77.42
85400;BME280;75813;48.758;9.290;2024-01-16T22:09:52;96151.69;;;-3.89;77.58
85400;BME280;75813;48.758;9.290;2024-01-16T22:12:18;96149.31;;;-3.85;77.99
85400;BME280;75813;48.758;9.290;2024-01-16T22:14:43;96143.28;;;-3.81;77.53
85400;BME280;75813;48.758;9.290;2024-01-16T22:17:08;96134.34;;;-3.80;77.17
85400;BME280;75813;48.758;9.290;2024-01-16T22:19:34;96132.78;;;-3.76;76.86
85400;BME280;75813;48.758;9.290;2024-01-16T22:21:59;96145.63;;;-3.69;76.96
85400;BME280;75813;48.758;9.290;2024-01-16T22:24:24;96130.16;;;-3.71;76.88
85400;BME280;75813;48.758;9.290;2024-01-16T22:26:50;96141.97;;;-3.68;77.01
85400;BME280;75813;48.758;9.290;2024-01-16T22:29:16;96125.44;;;-3.74;77.25
85400;BME280;75813;48.758;9.290;2024-01-16T22:31:41;96125.19;;;-3.72;76.92
85400;BME280;75813;48.758;9.290;2024-01-16T22:34:07;96119.91;;;-3.62;76.79
85400;BME280;75813;48.758;9.290;2024-01-16T22:36:33;96120.94;;;-3.58;76.28
85400;BME280;75813;48.758;9.290;2024-01-16T22:38:58;96115.44;;;-3.62;76.57
85400;BME280;75813;48.758;9.290;2024-01-16T22:41:23;96113.31;;;-3.54;76.45
85400;BME280;75813;48.758;9.290;2024-01-16T22:43:49;96108.34;;;-3.51;76.32
85400;BME280;75813;48.758;9.290;2024-01-16T22:46:14;96075.28;;;-3.62;76.13
85400;BME280;75813;48.758;9.290;2024-01-16T22:48:39;96090.22;;;-3.47;76.25
85400;BME280;75813;48.758;9.290;2024-01-16T22:51:05;96100.97;;;-3.49;75.84
85400;BME280;75813;48.758;9.290;2024-01-16T22:53:30;96093.34;;;-3.45;75.81
85400;BME280;75813;48.758;9.290;2024-01-16T22:55:56;96077.59;;;-3.45;76.25
85400;BME280;75813;48.758;9.290;2024-01-16T22:58:21;96080.50;;;-3.47;75.96
85400;BME280;75813;48.758;9.290;2024-01-16T23:00:47;96076.03;;;-3.46;76.22
85400;BME280;75813;48.758;9.290;2024-01-16T23:03:18;96077.84;;;-3.42;76.15
85400;BME280;75813;48.758;9.290;2024-01-16T23:05:46;96072.84;;;-3.38;76.20
85400;BME280;75813;48.758;9.290;2024-01-16T23:08:12;96074.66;;;-3.34;75.85
85400;BME280;75813;48.758;9.290;2024-01-16T23:10:37;96074.66;;;-3.29;75.40
85400;BME280;75813;48.758;9.290;2024-01-16T23:13:03;96079.13;;;-3.29;75.77
85400;BME280;75813;48.758;9.290;2024-01-16T23:15:28;96067.34;;;-3.37;75.31
85400;BME280;75813;48.758;9.290;2024-01-16T23:17:53;96073.63;;;-3.33;75.93
85400;BME280;75813;48.758;9.290;2024-01-16T23:20:19;96067.31;;;-3.32;75.88
85400;BME280;75813;48.758;9.290;2024-01-16T23:22:45;96064.69;;;-3.32;75.96
85400;BME280;75813;48.758;9.290;2024-01-16T23:25:11;96052.91;;;-3.34;75.83
85400;BME280;75813;48.758;9.290;2024-01-16T23:27:39;96058.16;;;-3.39;75.62
85400;BME280;75813;48.758;9.290;2024-01-16T23:30:06;96055.81;;;-3.41;75.89
85400;BME280;75813;48.758;9.290;2024-01-16T23:32:32;96053.75;;;-3.49;75.95
85400;BME280;75813;48.758;9.290;2024-01-16T23:34:58;96052.16;;;-3.50;76.53
85400;BME280;75813;48.758;9.290;2024-01-16T23:37:24;96036.44;;;-3.55;76.83
85400;BME280;75813;48.758;9.290;2024-01-16T23:39:51;96034.09;;;-3.51;76.56
85400;BME280;75813;48.758;9.290;2024-01-16T23:42:17;96028.03;;;-3.52;76.85
85400;BME280;75813;48.758;9.290;2024-01-16T23:44:43;96016.53;;;-3.56;77.32
85400;BME280;75813;48.758;9.290;2024-01-16T23:47:08;95996.34;;;-3.61;77.35
85400;BME280;75813;48.758;9.290;2024-01-16T23:49:34;96006.50;;;-3.49;77.40
85400;BME280;75813;48.758;9.290;2024-01-16T23:52:01;95990.75;;;-3.49;77.21
85400;BME280;75813;48.758;9.290;2024-01-16T23:54:26;95985.78;;;-3.50;77.04
85400;BME280;75813;48.758;9.290;2024-01-16T23:56:51;95986.03;;;-3.47;77.25
85400;BME280;75813;48.758;9.290;2024-01-16T23:59:17;95973.19;;;-3.48;77.50
